sensor_id;sensor_type;location;lat;lon;timestamp;P1;durP1;ratioP1;P2;durP2;ratioP2
17330;SDS011;8783;52.448;4.638;2023-07-31T00:00:11;7.78;;;2.67;;
17330;SDS011;8783;52.448;4.638;2023-07-31T00:02:37;13.25;;;3.00;;
17330;SDS011;8783;52.448;4.638;2023-07-31T00:05:03;7.10;;;2.45;;
17330;SDS011;8783;52.448;4.638;2023-07-31T00:07:29;8.88;;;2.67;;
17330;SDS011;8783;52.448;4.638;2023-07-31T00:09:54;8.63;;;2.80;;
17330;SDS011;8783;52.448;4.638;2023-07-31T00:12:21;8.10;;;2.47;;
17330;SDS011;8783;52.448;4.638;2023-07-31T00:14:48;8.48;;;2.35;;
17330;SDS011;8783;52.448;4.638;2023-07-31T00:17:13;10.07;;;2.88;;
17330;SDS011;8783;52.448;4.638;2023-07-31T00:19:39;8.60;;;2.72;;
17330;SDS011;8783;52.448;4.638;2023-07-31T00:22:05;9.45;;;2.28;;
17330;SDS011;8783;52.448;4.638;2023-07-31T00:24:31;8.27;;;2.65;;
17330;SDS011;8783;52.448;4.638;2023-07-31T00:26:56;6.18;;;2.33;;
17330;SDS011;8783;52.448;4.638;2023-07-31T00:29:22;7.35;;;2.80;;
17330;SDS011;8783;52.448;4.638;2023-07-31T00:31:48;9.73;;;2.60;;
17330;SDS011;8783;52.448;4.638;2023-07-31T00:34:13;11.32;;;3.00;;
17330;SDS011;8783;52.448;4.638;2023-07-31T00:36:39;12.23;;;3.08;;
17330;SDS011;8783;52.448;4.638;2023-07-31T00:39:05;10.30;;;3.03;;
17330;SDS011;8783;52.448;4.638;2023-07-31T00:41:30;14.05;;;3.63;;
17330;SDS011;8783;52.448;4.638;2023-07-31T00:43:56;8.75;;;3.33;;
17330;SDS011;8783;52.448;4.638;2023-07-31T00:46:21;12.25;;;3.85;;
17330;SDS011;8783;52.448;4.638;2023-07-31T00:48:47;11.48;;;3.42;;
17330;SDS011;8783;52.448;4.638;2023-07-31T00:51:14;9.43;;;3.50;;
17330;SDS011;8783;52.448;4.638;2023-07-31T00:53:40;16.88;;;4.38;;
17330;SDS011;8783;52.448;4.638;2023-07-31T00:56:06;13.73;;;3.97;;
17330;SDS011;8783;52.448;4.638;2023-07-31T00:58:32;10.15;;;3.25;;
17330;SDS011;8783;52.448;4.638;2023-07-31T01:00:58;14.52;;;4.40;;
17330;SDS011;8783;52.448;4.638;2023-07-31T01:03:23;16.02;;;4.10;;
17330;SDS011;8783;52.448;4.638;2023-07-31T01:08:32;12.95;;;3.70;;
17330;SDS011;8783;52.448;4.638;2023-07-31T01:11:07;12.50;;;3.78;;
17330;SDS011;8783;52.448;4.638;2023-07-31T01:13:37;11.02;;;3.90;;
17330;SDS011;8783;52.448;4.638;2023-07-31T01:16:03;12.60;;;4.32;;
17330;SDS011;8783;52.448;4.638;2023-07-31T01:18:29;17.00;;;4.60;;
17330;SDS011;8783;52.448;4.638;2023-07-31T01:20:57;17.65;;;5.10;;
17330;SDS011;8783;52.448;4.638;2023-07-31T01:23:48;14.68;;;4.68;;
17330;SDS011;8783;52.448;4.638;2023-07-31T01:26:28;12.85;;;4.40;;
17330;SDS011;8783;52.448;4.638;2023-07-31T01:31:56;16.75;;;5.35;;
17330;SDS011;8783;52.448;4.638;2023-07-31T01:34:27;20.27;;;5.40;;
17330;SDS011;8783;52.448;4.638;2023-07-31T01:36:55;18.90;;;5.18;;
17330;SDS011;8783;52.448;4.638;2023-07-31T01:39:21;15.38;;;4.78;;
17330;SDS011;8783;52.448;4.638;2023-07-31T01:41:47;16.88;;;5.22;;
17330;SDS011;8783;52.448;4.638;2023-07-31T01:44:12;16.55;;;5.45;;
17330;SDS011;8783;52.448;4.638;2023-07-31T01:46:38;15.18;;;5.38;;
17330;SDS011;8783;52.448;4.638;2023-07-31T01:49:05;17.27;;;5.00;;
17330;SDS011;8783;52.448;4.638;2023-07-31T01:51:31;18.95;;;6.18;;
17330;SDS011;8783;52.448;4.638;2023-07-31T01:53:59;18.00;;;5.57;;
17330;SDS011;8783;52.448;4.638;2023-07-31T01:56:25;14.07;;;4.97;;
17330;SDS011;8783;52.448;4.638;2023-07-31T01:58:51;22.05;;;5.90;;
17330;SDS011;8783;52.448;4.638;2023-07-31T02:01:17;19.98;;;5.47;;
17330;SDS011;8783;52.448;4.638;2023-07-31T02:03:42;17.55;;;5.80;;
17330;SDS011;8783;52.448;4.638;2023-07-31T02:06:08;21.20;;;5.65;;
17330;SDS011;8783;52.448;4.638;2023-07-31T02:08:34;24.20;;;5.88;;
17330;SDS011;8783;52.448;4.638;2023-07-31T02:10:59;15.45;;;5.28;;
17330;SDS011;8783;52.448;4.638;2023-07-31T02:13:25;18.92;;;5.50;;
17330;SDS011;8783;52.448;4.638;2023-07-31T02:15:51;19.38;;;6.25;;
17330;SDS011;8783;52.448;4.638;2023-07-31T02:18:16;21.08;;;6.93;;
17330;SDS011;8783;52.448;4.638;2023-07-31T02:20:42;21.15;;;5.68;;
17330;SDS011;8783;52.448;4.638;2023-07-31T02:23:11;19.95;;;6.13;;
17330;SDS011;8783;52.448;4.638;2023-07-31T02:25:36;18.15;;;5.03;;
17330;SDS011;8783;52.448;4.638;2023-07-31T02:28:02;21.05;;;5.97;;
17330;SDS011;8783;52.448;4.638;2023-07-31T02:30:28;18.60;;;5.65;;
17330;SDS011;8783;52.448;4.638;2023-07-31T02:32:53;18.42;;;5.90;;
17330;SDS011;8783;52.448;4.638;2023-07-31T02:35:19;16.45;;;5.57;;
17330;SDS011;8783;52.448;4.638;2023-07-31T02:37:44;16.75;;;5.57;;
17330;SDS011;8783;52.448;4.638;2023-07-31T02:40:10;18.42;;;6.28;;
17330;SDS011;8783;52.448;4.638;2023-07-31T02:42:36;21.17;;;6.97;;
17330;SDS011;8783;52.448;4.638;2023-07-31T02:45:02;17.13;;;6.30;;
17330;SDS011;8783;52.448;4.638;2023-07-31T02:47:28;18.17;;;6.18;;
17330;SDS011;8783;52.448;4.638;2023-07-31T02:49:53;17.70;;;5.55;;
17330;SDS011;8783;52.448;4.638;2023-07-31T02:52:19;19.92;;;5.97;;
17330;SDS011;8783;52.448;4.638;2023-07-31T02:54:45;17.73;;;6.38;;
17330;SDS011;8783;52.448;4.638;2023-07-31T02:57:10;22.13;;;6.68;;
17330;SDS011;8783;52.448;4.638;2023-07-31T02:59:36;20.50;;;6.93;;
17330;SDS011;8783;52.448;4.638;2023-07-31T03:02:02;18.15;;;5.82;;
17330;SDS011;8783;52.448;4.638;2023-07-31T03:04:27;17.83;;;6.00;;
17330;SDS011;8783;52.448;4.638;2023-07-31T03:06:53;18.67;;;5.93;;
17330;SDS011;8783;52.448;4.638;2023-07-31T03:09:19;16.92;;;5.63;;
17330;SDS011;8783;52.448;4.638;2023-07-31T03:11:44;19.60;;;5.93;;
17330;SDS011;8783;52.448;4.638;2023-07-31T03:14:10;14.88;;;5.63;;
17330;SDS011;8783;52.448;4.638;2023-07-31T03:16:35;16.83;;;5.95;;
17330;SDS011;8783;52.448;4.638;2023-07-31T03:19:01;19.33;;;6.10;;
17330;SDS011;8783;52.448;4.638;2023-07-31T03:21:27;20.63;;;6.40;;
17330;SDS011;8783;52.448;4.638;2023-07-31T03:23:52;16.83;;;6.03;;
17330;SDS011;8783;52.448;4.638;2023-07-31T03:26:18;16.77;;;5.57;;
17330;SDS011;8783;52.448;4.638;2023-07-31T03:28:44;20.35;;;5.70;;
17330;SDS011;8783;52.448;4.638;2023-07-31T03:31:09;16.90;;;6.00;;
17330;SDS011;8783;52.448;4.638;2023-07-31T03:33:36;17.73;;;5.93;;
17330;SDS011;8783;52.448;4.638;2023-07-31T03:36:02;22.65;;;6.38;;
17330;SDS011;8783;52.448;4.638;2023-07-31T03:38:27;17.65;;;6.40;;
17330;SDS011;8783;52.448;4.638;2023-07-31T03:40:53;20.50;;;6.03;;
17330;SDS011;8783;52.448;4.638;2023-07-31T03:43:19;26.55;;;6.97;;
17330;SDS011;8783;52.448;4.638;2023-07-31T03:45:44;17.35;;;5.90;;
17330;SDS011;8783;52.448;4.638;2023-07-31T03:48:10;22.10;;;6.93;;
17330;SDS011;8783;52.448;4.638;2023-07-31T03:50:36;22.85;;;6.43;;
17330;SDS011;8783;52.448;4.638;2023-07-31T03:53:02;22.27;;;6.40;;
17330;SDS011;8783;52.448;4.638;2023-07-31T03:55:27;18.55;;;5.90;;
17330;SDS011;8783;52.448;4.638;2023-07-31T03:57:53;16.50;;;5.97;;
17330;SDS011;8783;52.448;4.638;2023-07-31T04:00:19;21.55;;;6.13;;
17330;SDS011;8783;52.448;4.638;2023-07-31T04:02:45;19.38;;;5.80;;
17330;SDS011;8783;52.448;4.638;2023-07-31T04:05:11;20.23;;;5.88;;
17330;SDS011;8783;52.448;4.638;2023-07-31T04:07:36;15.23;;;5.47;;
17330;SDS011;8783;52.448;4.638;2023-07-31T04:10:03;20.25;;;5.88;;
17330;SDS011;8783;52.448;4.638;2023-07-31T04:12:29;20.10;;;6.07;;
17330;SDS011;8783;52.448;4.638;2023-07-31T04:14:54;20.33;;;6.25;;
17330;SDS011;8783;52.448;4.638;2023-07-31T04:17:20;17.55;;;5.95;;
17330;SDS011;8783;52.448;4.638;2023-07-31T04:19:46;14.32;;;5.47;;
17330;SDS011;8783;52.448;4.638;2023-07-31T04:22:11;18.05;;;4.88;;
17330;SDS011;8783;52.448;4.638;2023-07-31T04:24:37;16.05;;;4.90;;
17330;SDS011;8783;52.448;4.638;2023-07-31T04:27:03;15.10;;;5.10;;
17330;SDS011;8783;52.448;4.638;2023-07-31T04:29:28;20.73;;;5.78;;
17330;SDS011;8783;52.448;4.638;2023-07-31T04:31:54;19.00;;;5.55;;
17330;SDS011;8783;52.448;4.638;2023-07-31T04:34:19;16.65;;;4.70;;
17330;SDS011;8783;52.448;4.638;2023-07-31T04:36:45;12.93;;;4.43;;
17330;SDS011;8783;52.448;4.638;2023-07-31T04:39:11;10.13;;;3.65;;
17330;SDS011;8783;52.448;4.638;2023-07-31T04:41:36;11.48;;;3.70;;
17330;SDS011;8783;52.448;4.638;2023-07-31T04:44:02;13.77;;;4.47;;
17330;SDS011;8783;52.448;4.638;2023-07-31T04:46:30;12.68;;;3.80;;
17330;SDS011;8783;52.448;4.638;2023-07-31T04:48:56;11.38;;;3.90;;
17330;SDS011;8783;52.448;4.638;2023-07-31T04:51:22;9.77;;;3.47;;
17330;SDS011;8783;52.448;4.638;2023-07-31T04:53:48;10.05;;;3.92;;
17330;SDS011;8783;52.448;4.638;2023-07-31T04:56:14;8.60;;;3.70;;
17330;SDS011;8783;52.448;4.638;2023-07-31T04:58:41;8.90;;;2.83;;
17330;SDS011;8783;52.448;4.638;2023-07-31T05:01:06;11.52;;;3.40;;
17330;SDS011;8783;52.448;4.638;2023-07-31T05:03:32;7.97;;;3.05;;
17330;SDS011;8783;52.448;4.638;2023-07-31T05:05:57;6.75;;;2.72;;
17330;SDS011;8783;52.448;4.638;2023-07-31T05:08:23;7.50;;;2.67;;
17330;SDS011;8783;52.448;4.638;2023-07-31T05:10:49;10.57;;;2.95;;
17330;SDS011;8783;52.448;4.638;2023-07-31T05:13:15;10.52;;;3.03;;
17330;SDS011;8783;52.448;4.638;2023-07-31T05:15:41;8.38;;;2.90;;
17330;SDS011;8783;52.448;4.638;2023-07-31T05:18:06;8.10;;;2.15;;
17330;SDS011;8783;52.448;4.638;2023-07-31T05:20:32;12.15;;;2.50;;
17330;SDS011;8783;52.448;4.638;2023-07-31T05:22:58;8.73;;;2.65;;
17330;SDS011;8783;52.448;4.638;2023-07-31T05:25:23;10.00;;;2.78;;
17330;SDS011;8783;52.448;4.638;2023-07-31T05:27:49;10.82;;;2.25;;
17330;SDS011;8783;52.448;4.638;2023-07-31T05:30:15;8.98;;;2.03;;
17330;SDS011;8783;52.448;4.638;2023-07-31T05:32:40;6.78;;;2.15;;
17330;SDS011;8783;52.448;4.638;2023-07-31T05:35:06;9.68;;;2.95;;
17330;SDS011;8783;52.448;4.638;2023-07-31T05:37:32;8.50;;;2.15;;
17330;SDS011;8783;52.448;4.638;2023-07-31T05:39:57;8.90;;;2.55;;
17330;SDS011;8783;52.448;4.638;2023-07-31T05:42:23;7.95;;;2.30;;
17330;SDS011;8783;52.448;4.638;2023-07-31T05:44:51;7.38;;;2.47;;
17330;SDS011;8783;52.448;4.638;2023-07-31T05:47:17;10.85;;;2.28;;
17330;SDS011;8783;52.448;4.638;2023-07-31T05:49:43;8.73;;;2.22;;
17330;SDS011;8783;52.448;4.638;2023-07-31T05:52:09;8.82;;;2.60;;
17330;SDS011;8783;52.448;4.638;2023-07-31T05:54:35;8.25;;;2.53;;
17330;SDS011;8783;52.448;4.638;2023-07-31T05:57:00;8.73;;;2.25;;
17330;SDS011;8783;52.448;4.638;2023-07-31T05:59:26;10.10;;;2.42;;
17330;SDS011;8783;52.448;4.638;2023-07-31T06:01:52;10.05;;;2.47;;
17330;SDS011;8783;52.448;4.638;2023-07-31T06:04:18;7.45;;;2.25;;
17330;SDS011;8783;52.448;4.638;2023-07-31T06:06:43;9.30;;;2.50;;
17330;SDS011;8783;52.448;4.638;2023-07-31T06:09:09;8.65;;;2.83;;
17330;SDS011;8783;52.448;4.638;2023-07-31T06:11:35;8.77;;;2.75;;
17330;SDS011;8783;52.448;4.638;2023-07-31T06:14:00;7.40;;;2.47;;
17330;SDS011;8783;52.448;4.638;2023-07-31T06:16:26;11.63;;;2.78;;
17330;SDS011;8783;52.448;4.638;2023-07-31T06:18:52;12.43;;;3.20;;
17330;SDS011;8783;52.448;4.638;2023-07-31T06:21:18;13.57;;;3.55;;
17330;SDS011;8783;52.448;4.638;2023-07-31T06:23:43;11.10;;;2.78;;
17330;SDS011;8783;52.448;4.638;2023-07-31T06:26:09;9.15;;;2.80;;
17330;SDS011;8783;52.448;4.638;2023-07-31T06:28:35;12.35;;;3.33;;
17330;SDS011;8783;52.448;4.638;2023-07-31T06:31:00;9.48;;;3.08;;
17330;SDS011;8783;52.448;4.638;2023-07-31T06:33:27;14.60;;;3.13;;
17330;SDS011;8783;52.448;4.638;2023-07-31T06:35:53;12.48;;;2.88;;
17330;SDS011;8783;52.448;4.638;2023-07-31T06:38:21;12.18;;;2.63;;
17330;SDS011;8783;52.448;4.638;2023-07-31T06:40:49;12.13;;;3.28;;
17330;SDS011;8783;52.448;4.638;2023-07-31T06:43:14;27.40;;;5.53;;
17330;SDS011;8783;52.448;4.638;2023-07-31T06:45:40;52.03;;;11.23;;
17330;SDS011;8783;52.448;4.638;2023-07-31T06:48:05;44.53;;;10.23;;
17330;SDS011;8783;52.448;4.638;2023-07-31T06:50:31;30.42;;;8.18;;
17330;SDS011;8783;52.448;4.638;2023-07-31T06:52:57;33.13;;;7.90;;
17330;SDS011;8783;52.448;4.638;2023-07-31T06:55:24;61.67;;;15.50;;
17330;SDS011;8783;52.448;4.638;2023-07-31T06:57:51;47.47;;;11.23;;
17330;SDS011;8783;52.448;4.638;2023-07-31T07:00:18;48.92;;;12.57;;
17330;SDS011;8783;52.448;4.638;2023-07-31T07:02:48;44.95;;;11.40;;
17330;SDS011;8783;52.448;4.638;2023-07-31T07:05:17;35.25;;;10.75;;
17330;SDS011;8783;52.448;4.638;2023-07-31T07:07:43;41.47;;;10.88;;
17330;SDS011;8783;52.448;4.638;2023-07-31T07:10:09;41.20;;;11.55;;
17330;SDS011;8783;52.448;4.638;2023-07-31T07:12:35;34.28;;;10.60;;
17330;SDS011;8783;52.448;4.638;2023-07-31T07:15:01;34.40;;;9.90;;
17330;SDS011;8783;52.448;4.638;2023-07-31T07:17:28;31.08;;;8.68;;
17330;SDS011;8783;52.448;4.638;2023-07-31T07:19:58;29.98;;;8.95;;
17330;SDS011;8783;52.448;4.638;2023-07-31T07:22:24;31.50;;;8.10;;
17330;SDS011;8783;52.448;4.638;2023-07-31T07:24:51;25.30;;;7.07;;
17330;SDS011;8783;52.448;4.638;2023-07-31T07:27:17;31.48;;;7.90;;
17330;SDS011;8783;52.448;4.638;2023-07-31T07:29:43;23.30;;;6.70;;
17330;SDS011;8783;52.448;4.638;2023-07-31T07:32:09;21.90;;;6.28;;
17330;SDS011;8783;52.448;4.638;2023-07-31T07:34:34;21.95;;;5.93;;
17330;SDS011;8783;52.448;4.638;2023-07-31T07:37:00;16.10;;;5.60;;
17330;SDS011;8783;52.448;4.638;2023-07-31T07:39:26;18.00;;;5.95;;
17330;SDS011;8783;52.448;4.638;2023-07-31T07:41:51;19.02;;;5.47;;
17330;SDS011;8783;52.448;4.638;2023-07-31T07:44:18;14.63;;;5.07;;
17330;SDS011;8783;52.448;4.638;2023-07-31T07:46:44;16.20;;;4.78;;
17330;SDS011;8783;52.448;4.638;2023-07-31T07:49:10;14.90;;;4.82;;
17330;SDS011;8783;52.448;4.638;2023-07-31T07:51:35;12.93;;;4.07;;
17330;SDS011;8783;52.448;4.638;2023-07-31T07:54:01;11.80;;;4.00;;
17330;SDS011;8783;52.448;4.638;2023-07-31T07:56:27;16.13;;;4.72;;
17330;SDS011;8783;52.448;4.638;2023-07-31T07:58:56;13.98;;;4.03;;
17330;SDS011;8783;52.448;4.638;2023-07-31T08:01:21;13.77;;;4.05;;
17330;SDS011;8783;52.448;4.638;2023-07-31T08:03:47;15.63;;;4.43;;
17330;SDS011;8783;52.448;4.638;2023-07-31T08:06:13;11.93;;;3.67;;
17330;SDS011;8783;52.448;4.638;2023-07-31T08:08:39;12.80;;;3.60;;
17330;SDS011;8783;52.448;4.638;2023-07-31T08:11:05;15.32;;;3.85;;
17330;SDS011;8783;52.448;4.638;2023-07-31T08:13:31;10.68;;;3.70;;
17330;SDS011;8783;52.448;4.638;2023-07-31T08:15:57;13.98;;;3.53;;
17330;SDS011;8783;52.448;4.638;2023-07-31T08:18:22;11.30;;;3.08;;
17330;SDS011;8783;52.448;4.638;2023-07-31T08:20:48;13.15;;;2.80;;
17330;SDS011;8783;52.448;4.638;2023-07-31T08:23:14;10.48;;;3.10;;
17330;SDS011;8783;52.448;4.638;2023-07-31T08:25:39;8.48;;;2.95;;
17330;SDS011;8783;52.448;4.638;2023-07-31T08:28:06;8.60;;;2.95;;
17330;SDS011;8783;52.448;4.638;2023-07-31T08:30:32;8.35;;;2.90;;
17330;SDS011;8783;52.448;4.638;2023-07-31T08:33:01;11.75;;;3.13;;
17330;SDS011;8783;52.448;4.638;2023-07-31T08:35:27;9.55;;;2.72;;
17330;SDS011;8783;52.448;4.638;2023-07-31T08:37:53;8.77;;;2.90;;
17330;SDS011;8783;52.448;4.638;2023-07-31T08:40:19;10.05;;;2.95;;
17330;SDS011;8783;52.448;4.638;2023-07-31T08:42:47;10.00;;;2.78;;
17330;SDS011;8783;52.448;4.638;2023-07-31T08:45:14;8.32;;;2.97;;
17330;SDS011;8783;52.448;4.638;2023-07-31T08:47:44;8.73;;;2.72;;
17330;SDS011;8783;52.448;4.638;2023-07-31T08:50:14;8.98;;;2.55;;
17330;SDS011;8783;52.448;4.638;2023-07-31T08:52:41;12.38;;;3.15;;
17330;SDS011;8783;52.448;4.638;2023-07-31T08:55:07;11.45;;;3.10;;
17330;SDS011;8783;52.448;4.638;2023-07-31T08:57:34;10.85;;;2.85;;
17330;SDS011;8783;52.448;4.638;2023-07-31T09:00:02;9.18;;;2.85;;
17330;SDS011;8783;52.448;4.638;2023-07-31T09:02:30;9.63;;;2.78;;
17330;SDS011;8783;52.448;4.638;2023-07-31T09:05:02;8.23;;;2.67;;
17330;SDS011;8783;52.448;4.638;2023-07-31T09:07:30;11.45;;;2.63;;
17330;SDS011;8783;52.448;4.638;2023-07-31T09:09:58;6.82;;;2.28;;
17330;SDS011;8783;52.448;4.638;2023-07-31T09:12:25;8.55;;;2.75;;
17330;SDS011;8783;52.448;4.638;2023-07-31T09:14:51;8.88;;;2.95;;
17330;SDS011;8783;52.448;4.638;2023-07-31T09:17:16;10.93;;;3.17;;
17330;SDS011;8783;52.448;4.638;2023-07-31T09:19:57;11.32;;;3.00;;
17330;SDS011;8783;52.448;4.638;2023-07-31T09:22:32;16.27;;;3.47;;
17330;SDS011;8783;52.448;4.638;2023-07-31T09:27:45;16.98;;;3.42;;
17330;SDS011;8783;52.448;4.638;2023-07-31T09:30:14;14.00;;;3.00;;
17330;SDS011;8783;52.448;4.638;2023-07-31T09:32:44;12.70;;;3.28;;
17330;SDS011;8783;52.448;4.638;2023-07-31T09:35:20;12.68;;;3.08;;
17330;SDS011;8783;52.448;4.638;2023-07-31T09:37:57;13.35;;;3.10;;
17330;SDS011;8783;52.448;4.638;2023-07-31T09:40:28;12.98;;;3.40;;
17330;SDS011;8783;52.448;4.638;2023-07-31T09:43:01;10.82;;;2.50;;
17330;SDS011;8783;52.448;4.638;2023-07-31T09:45:29;18.10;;;4.00;;
17330;SDS011;8783;52.448;4.638;2023-07-31T09:47:55;13.65;;;3.60;;
17330;SDS011;8783;52.448;4.638;2023-07-31T09:50:22;18.05;;;3.15;;
17330;SDS011;8783;52.448;4.638;2023-07-31T09:52:49;17.45;;;3.67;;
17330;SDS011;8783;52.448;4.638;2023-07-31T09:55:16;17.75;;;3.53;;
17330;SDS011;8783;52.448;4.638;2023-07-31T09:57:43;16.23;;;3.30;;
17330;SDS011;8783;52.448;4.638;2023-07-31T10:00:11;60.42;;;13.57;;
17330;SDS011;8783;52.448;4.638;2023-07-31T10:02:38;27.00;;;6.10;;
17330;SDS011;8783;52.448;4.638;2023-07-31T10:05:04;18.70;;;3.80;;
17330;SDS011;8783;52.448;4.638;2023-07-31T10:07:33;18.13;;;4.15;;
17330;SDS011;8783;52.448;4.638;2023-07-31T10:10:07;15.23;;;3.42;;
17330;SDS011;8783;52.448;4.638;2023-07-31T10:12:34;12.88;;;3.08;;
17330;SDS011;8783;52.448;4.638;2023-07-31T10:15:04;19.48;;;3.78;;
17330;SDS011;8783;52.448;4.638;2023-07-31T10:17:31;14.60;;;2.83;;
17330;SDS011;8783;52.448;4.638;2023-07-31T10:19:57;11.15;;;3.30;;
17330;SDS011;8783;52.448;4.638;2023-07-31T10:22:24;17.75;;;3.80;;
17330;SDS011;8783;52.448;4.638;2023-07-31T10:24:50;15.30;;;3.55;;
17330;SDS011;8783;52.448;4.638;2023-07-31T10:27:19;16.88;;;3.20;;
17330;SDS011;8783;52.448;4.638;2023-07-31T10:29:45;16.85;;;3.15;;
17330;SDS011;8783;52.448;4.638;2023-07-31T10:32:13;14.05;;;3.38;;
17330;SDS011;8783;52.448;4.638;2023-07-31T10:34:40;13.98;;;3.08;;
17330;SDS011;8783;52.448;4.638;2023-07-31T10:42:23;14.40;;;3.00;;
17330;SDS011;8783;52.448;4.638;2023-07-31T10:44:59;17.73;;;3.13;;
17330;SDS011;8783;52.448;4.638;2023-07-31T10:47:27;12.80;;;3.72;;
17330;SDS011;8783;52.448;4.638;2023-07-31T10:49:53;18.75;;;3.80;;
17330;SDS011;8783;52.448;4.638;2023-07-31T10:52:35;15.57;;;3.33;;
17330;SDS011;8783;52.448;4.638;2023-07-31T10:55:46;20.98;;;3.58;;
17330;SDS011;8783;52.448;4.638;2023-07-31T10:57:58;13.70;;;3.25;;
17330;SDS011;8783;52.448;4.638;2023-07-31T11:00:43;17.40;;;3.78;;
17330;SDS011;8783;52.448;4.638;2023-07-31T11:08:16;13.40;;;3.53;;
17330;SDS011;8783;52.448;4.638;2023-07-31T11:10:48;15.85;;;3.58;;
17330;SDS011;8783;52.448;4.638;2023-07-31T11:13:30;22.20;;;4.38;;
17330;SDS011;8783;52.448;4.638;2023-07-31T11:15:58;17.77;;;4.00;;
17330;SDS011;8783;52.448;4.638;2023-07-31T11:18:24;10.98;;;3.10;;
17330;SDS011;8783;52.448;4.638;2023-07-31T11:20:52;12.60;;;3.65;;
17330;SDS011;8783;52.448;4.638;2023-07-31T11:23:19;16.90;;;3.80;;
17330;SDS011;8783;52.448;4.638;2023-07-31T11:25:45;16.08;;;2.80;;
17330;SDS011;8783;52.448;4.638;2023-07-31T11:28:12;16.45;;;3.38;;
17330;SDS011;8783;52.448;4.638;2023-07-31T11:30:42;16.88;;;3.67;;
17330;SDS011;8783;52.448;4.638;2023-07-31T11:33:09;13.13;;;3.20;;
17330;SDS011;8783;52.448;4.638;2023-07-31T11:35:43;13.93;;;3.45;;
17330;SDS011;8783;52.448;4.638;2023-07-31T11:38:30;15.70;;;3.97;;
17330;SDS011;8783;52.448;4.638;2023-07-31T11:41:01;19.27;;;3.88;;
17330;SDS011;8783;52.448;4.638;2023-07-31T11:43:31;14.77;;;3.30;;
17330;SDS011;8783;52.448;4.638;2023-07-31T11:45:58;20.83;;;3.58;;
17330;SDS011;8783;52.448;4.638;2023-07-31T11:48:27;14.20;;;3.35;;
17330;SDS011;8783;52.448;4.638;2023-07-31T11:50:56;11.00;;;2.92;;
17330;SDS011;8783;52.448;4.638;2023-07-31T11:53:36;16.33;;;3.13;;
17330;SDS011;8783;52.448;4.638;2023-07-31T11:56:06;15.48;;;3.15;;
17330;SDS011;8783;52.448;4.638;2023-07-31T11:58:36;14.93;;;3.05;;
17330;SDS011;8783;52.448;4.638;2023-07-31T12:01:05;10.32;;;2.90;;
17330;SDS011;8783;52.448;4.638;2023-07-31T12:03:35;13.00;;;2.80;;
17330;SDS011;8783;52.448;4.638;2023-07-31T12:06:01;15.73;;;3.10;;
17330;SDS011;8783;52.448;4.638;2023-07-31T12:08:28;14.32;;;3.42;;
17330;SDS011;8783;52.448;4.638;2023-07-31T12:11:01;14.23;;;3.28;;
17330;SDS011;8783;52.448;4.638;2023-07-31T12:13:32;13.23;;;3.08;;
17330;SDS011;8783;52.448;4.638;2023-07-31T12:16:00;11.68;;;3.08;;
17330;SDS011;8783;52.448;4.638;2023-07-31T12:18:33;8.15;;;2.50;;
17330;SDS011;8783;52.448;4.638;2023-07-31T12:21:01;9.80;;;3.20;;
17330;SDS011;8783;52.448;4.638;2023-07-31T12:23:30;14.48;;;3.33;;
17330;SDS011;8783;52.448;4.638;2023-07-31T12:26:16;13.35;;;3.17;;
17330;SDS011;8783;52.448;4.638;2023-07-31T12:28:43;12.07;;;2.97;;
17330;SDS011;8783;52.448;4.638;2023-07-31T12:31:12;16.23;;;3.85;;
17330;SDS011;8783;52.448;4.638;2023-07-31T12:33:43;13.70;;;3.25;;
17330;SDS011;8783;52.448;4.638;2023-07-31T12:36:10;15.15;;;3.40;;
17330;SDS011;8783;52.448;4.638;2023-07-31T12:38:38;11.38;;;3.03;;
17330;SDS011;8783;52.448;4.638;2023-07-31T12:41:04;13.65;;;2.90;;
17330;SDS011;8783;52.448;4.638;2023-07-31T12:43:31;11.73;;;2.95;;
17330;SDS011;8783;52.448;4.638;2023-07-31T12:45:58;12.50;;;3.13;;
17330;SDS011;8783;52.448;4.638;2023-07-31T12:48:24;9.80;;;2.70;;
17330;SDS011;8783;52.448;4.638;2023-07-31T12:50:50;13.27;;;2.92;;
17330;SDS011;8783;52.448;4.638;2023-07-31T12:53:16;10.70;;;2.75;;
17330;SDS011;8783;52.448;4.638;2023-07-31T12:55:42;12.30;;;2.78;;
17330;SDS011;8783;52.448;4.638;2023-07-31T12:58:07;12.27;;;2.97;;
17330;SDS011;8783;52.448;4.638;2023-07-31T13:00:33;13.10;;;2.45;;
17330;SDS011;8783;52.448;4.638;2023-07-31T13:03:01;12.30;;;2.97;;
17330;SDS011;8783;52.448;4.638;2023-07-31T13:05:28;12.93;;;3.08;;
17330;SDS011;8783;52.448;4.638;2023-07-31T13:07:54;11.00;;;2.58;;
17330;SDS011;8783;52.448;4.638;2023-07-31T13:10:20;9.48;;;2.53;;
17330;SDS011;8783;52.448;4.638;2023-07-31T13:12:45;7.35;;;2.05;;
17330;SDS011;8783;52.448;4.638;2023-07-31T13:15:11;10.20;;;2.80;;
17330;SDS011;8783;52.448;4.638;2023-07-31T13:17:37;11.57;;;2.55;;
17330;SDS011;8783;52.448;4.638;2023-07-31T13:20:03;9.52;;;2.50;;
17330;SDS011;8783;52.448;4.638;2023-07-31T13:22:29;10.43;;;2.92;;
17330;SDS011;8783;52.448;4.638;2023-07-31T13:24:55;12.25;;;2.83;;
17330;SDS011;8783;52.448;4.638;2023-07-31T13:27:21;12.15;;;2.63;;
17330;SDS011;8783;52.448;4.638;2023-07-31T13:29:48;10.05;;;2.35;;
17330;SDS011;8783;52.448;4.638;2023-07-31T13:32:15;10.57;;;2.80;;
17330;SDS011;8783;52.448;4.638;2023-07-31T13:34:41;14.88;;;2.60;;
17330;SDS011;8783;52.448;4.638;2023-07-31T13:37:07;8.45;;;2.13;;
17330;SDS011;8783;52.448;4.638;2023-07-31T13:39:33;10.60;;;1.92;;
17330;SDS011;8783;52.448;4.638;2023-07-31T13:41:59;11.13;;;2.40;;
17330;SDS011;8783;52.448;4.638;2023-07-31T13:44:25;7.57;;;1.92;;
17330;SDS011;8783;52.448;4.638;2023-07-31T13:46:51;9.10;;;1.80;;
17330;SDS011;8783;52.448;4.638;2023-07-31T13:49:17;9.82;;;1.88;;
17330;SDS011;8783;52.448;4.638;2023-07-31T13:51:42;10.52;;;2.15;;
17330;SDS011;8783;52.448;4.638;2023-07-31T13:54:08;9.38;;;2.20;;
17330;SDS011;8783;52.448;4.638;2023-07-31T13:56:36;11.35;;;2.42;;
17330;SDS011;8783;52.448;4.638;2023-07-31T13:59:02;7.97;;;2.22;;
17330;SDS011;8783;52.448;4.638;2023-07-31T14:01:28;12.23;;;2.22;;
17330;SDS011;8783;52.448;4.638;2023-07-31T14:03:53;12.48;;;2.50;;
17330;SDS011;8783;52.448;4.638;2023-07-31T14:06:19;12.57;;;2.55;;
17330;SDS011;8783;52.448;4.638;2023-07-31T14:08:45;7.68;;;2.38;;
17330;SDS011;8783;52.448;4.638;2023-07-31T14:11:10;10.55;;;2.40;;
17330;SDS011;8783;52.448;4.638;2023-07-31T14:13:36;16.40;;;3.03;;
17330;SDS011;8783;52.448;4.638;2023-07-31T14:16:02;14.35;;;2.90;;
17330;SDS011;8783;52.448;4.638;2023-07-31T14:18:27;12.80;;;3.13;;
17330;SDS011;8783;52.448;4.638;2023-07-31T14:20:53;14.13;;;3.42;;
17330;SDS011;8783;52.448;4.638;2023-07-31T14:23:19;12.07;;;2.92;;
17330;SDS011;8783;52.448;4.638;2023-07-31T14:25:45;12.07;;;2.97;;
17330;SDS011;8783;52.448;4.638;2023-07-31T14:28:12;13.07;;;3.38;;
17330;SDS011;8783;52.448;4.638;2023-07-31T14:30:37;13.82;;;3.53;;
17330;SDS011;8783;52.448;4.638;2023-07-31T14:33:03;17.17;;;3.17;;
17330;SDS011;8783;52.448;4.638;2023-07-31T14:35:29;13.85;;;3.00;;
17330;SDS011;8783;52.448;4.638;2023-07-31T14:37:54;14.68;;;3.22;;
17330;SDS011;8783;52.448;4.638;2023-07-31T14:40:20;14.02;;;3.33;;
17330;SDS011;8783;52.448;4.638;2023-07-31T14:42:46;16.30;;;3.22;;
17330;SDS011;8783;52.448;4.638;2023-07-31T14:45:12;12.13;;;2.95;;
17330;SDS011;8783;52.448;4.638;2023-07-31T14:47:37;15.15;;;3.30;;
17330;SDS011;8783;52.448;4.638;2023-07-31T14:50:03;14.13;;;3.40;;
17330;SDS011;8783;52.448;4.638;2023-07-31T14:52:29;17.45;;;3.35;;
17330;SDS011;8783;52.448;4.638;2023-07-31T14:54:55;19.15;;;3.67;;
17330;SDS011;8783;52.448;4.638;2023-07-31T14:57:21;13.52;;;3.53;;
17330;SDS011;8783;52.448;4.638;2023-07-31T14:59:47;17.63;;;3.83;;
17330;SDS011;8783;52.448;4.638;2023-07-31T15:02:12;14.23;;;3.50;;
17330;SDS011;8783;52.448;4.638;2023-07-31T15:04:38;12.15;;;3.17;;
17330;SDS011;8783;52.448;4.638;2023-07-31T15:07:04;13.18;;;2.50;;